sensor_id;sensor_type;location;lat;lon;timestamp;P1;durP1;ratioP1;P2;durP2;ratioP2
12784;SDS011;6456;42.680;23.260;2023-07-02T00:02:19;6.20;;;5.07;;
12784;SDS011;6456;42.680;23.260;2023-07-02T00:04:47;5.87;;;4.57;;
12784;SDS011;6456;42.680;23.260;2023-07-02T00:07:14;5.40;;;4.47;;
12784;SDS011;6456;42.680;23.260;2023-07-02T00:09:42;6.03;;;4.63;;
12784;SDS011;6456;42.680;23.260;2023-07-02T00:12:09;6.97;;;4.93;;
12784;SDS011;6456;42.680;23.260;2023-07-02T00:14:36;8.30;;;5.43;;
12784;SDS011;6456;42.680;23.260;2023-07-02T00:17:03;7.57;;;5.20;;
12784;SDS011;6456;42.680;23.260;2023-07-02T00:19:30;6.37;;;4.97;;
12784;SDS011;6456;42.680;23.260;2023-07-02T00:21:57;5.83;;;4.93;;
12784;SDS011;6456;42.680;23.260;2023-07-02T00:24:24;5.97;;;5.10;;
12784;SDS011;6456;42.680;23.260;2023-07-02T00:26:52;6.07;;;4.50;;
12784;SDS011;6456;42.680;23.260;2023-07-02T00:29:19;5.50;;;4.77;;
12784;SDS011;6456;42.680;23.260;2023-07-02T00:31:45;5.87;;;5.03;;
12784;SDS011;6456;42.680;23.260;2023-07-02T00:34:12;6.63;;;5.13;;
12784;SDS011;6456;42.680;23.260;2023-07-02T00:36:39;7.00;;;4.93;;
12784;SDS011;6456;42.680;23.260;2023-07-02T00:39:07;7.73;;;5.33;;
12784;SDS011;6456;42.680;23.260;2023-07-02T00:41:33;5.50;;;4.47;;
12784;SDS011;6456;42.680;23.260;2023-07-02T00:44:02;5.87;;;5.07;;
12784;SDS011;6456;42.680;23.260;2023-07-02T00:46:29;7.97;;;4.90;;
12784;SDS011;6456;42.680;23.260;2023-07-02T00:48:57;7.57;;;5.07;;
12784;SDS011;6456;42.680;23.260;2023-07-02T00:51:26;7.27;;;5.67;;
12784;SDS011;6456;42.680;23.260;2023-07-02T00:53:55;5.90;;;5.20;;
12784;SDS011;6456;42.680;23.260;2023-07-02T00:56:23;6.17;;;4.87;;
12784;SDS011;6456;42.680;23.260;2023-07-02T00:58:52;6.93;;;5.10;;
12784;SDS011;6456;42.680;23.260;2023-07-02T01:01:25;7.63;;;5.00;;
12784;SDS011;6456;42.680;23.260;2023-07-02T01:03:56;6.90;;;5.20;;
12784;SDS011;6456;42.680;23.260;2023-07-02T01:06:24;6.43;;;4.40;;
12784;SDS011;6456;42.680;23.260;2023-07-02T01:08:53;8.10;;;5.47;;
12784;SDS011;6456;42.680;23.260;2023-07-02T01:11:22;5.33;;;4.80;;
12784;SDS011;6456;42.680;23.260;2023-07-02T01:13:53;6.27;;;5.10;;
12784;SDS011;6456;42.680;23.260;2023-07-02T01:16:25;6.67;;;5.27;;
12784;SDS011;6456;42.680;23.260;2023-07-02T01:18:56;6.10;;;5.07;;
12784;SDS011;6456;42.680;23.260;2023-07-02T01:21:25;6.57;;;5.30;;
12784;SDS011;6456;42.680;23.260;2023-07-02T01:23:52;7.03;;;5.50;;
12784;SDS011;6456;42.680;23.260;2023-07-02T01:26:19;7.73;;;6.10;;
12784;SDS011;6456;42.680;23.260;2023-07-02T01:28:46;7.20;;;5.57;;
12784;SDS011;6456;42.680;23.260;2023-07-02T01:31:13;8.33;;;5.73;;
12784;SDS011;6456;42.680;23.260;2023-07-02T01:33:41;7.97;;;5.67;;
12784;SDS011;6456;42.680;23.260;2023-07-02T01:36:08;6.73;;;5.27;;
12784;SDS011;6456;42.680;23.260;2023-07-02T01:38:37;8.70;;;6.00;;
12784;SDS011;6456;42.680;23.260;2023-07-02T01:41:03;6.67;;;5.47;;
12784;SDS011;6456;42.680;23.260;2023-07-02T01:43:30;9.00;;;5.50;;
12784;SDS011;6456;42.680;23.260;2023-07-02T01:45:57;7.70;;;5.53;;
12784;SDS011;6456;42.680;23.260;2023-07-02T01:48:24;6.47;;;5.43;;
12784;SDS011;6456;42.680;23.260;2023-07-02T01:50:52;6.43;;;5.40;;
12784;SDS011;6456;42.680;23.260;2023-07-02T01:53:19;7.60;;;5.90;;
12784;SDS011;6456;42.680;23.260;2023-07-02T01:55:47;8.83;;;5.10;;
12784;SDS011;6456;42.680;23.260;2023-07-02T01:58:14;6.87;;;5.33;;
12784;SDS011;6456;42.680;23.260;2023-07-02T02:00:41;8.20;;;5.90;;
12784;SDS011;6456;42.680;23.260;2023-07-02T02:03:07;8.03;;;6.33;;
12784;SDS011;6456;42.680;23.260;2023-07-02T02:05:34;8.07;;;6.17;;
12784;SDS011;6456;42.680;23.260;2023-07-02T02:08:01;10.10;;;5.93;;
12784;SDS011;6456;42.680;23.260;2023-07-02T02:10:28;7.50;;;5.93;;
12784;SDS011;6456;42.680;23.260;2023-07-02T02:12:56;10.87;;;6.20;;
12784;SDS011;6456;42.680;23.260;2023-07-02T02:15:23;8.07;;;6.30;;
12784;SDS011;6456;42.680;23.260;2023-07-02T02:17:50;9.17;;;6.47;;
12784;SDS011;6456;42.680;23.260;2023-07-02T02:20:17;8.37;;;6.77;;
12784;SDS011;6456;42.680;23.260;2023-07-02T02:22:44;8.03;;;6.00;;
12784;SDS011;6456;42.680;23.260;2023-07-02T02:25:10;7.60;;;6.27;;
12784;SDS011;6456;42.680;23.260;2023-07-02T02:27:39;10.80;;;6.97;;
12784;SDS011;6456;42.680;23.260;2023-07-02T02:30:08;7.17;;;6.47;;
12784;SDS011;6456;42.680;23.260;2023-07-02T02:32:35;7.50;;;6.70;;
12784;SDS011;6456;42.680;23.260;2023-07-02T02:35:02;8.20;;;6.87;;
12784;SDS011;6456;42.680;23.260;2023-07-02T02:37:29;7.17;;;6.23;;
12784;SDS011;6456;42.680;23.260;2023-07-02T02:39:57;9.00;;;6.73;;
12784;SDS011;6456;42.680;23.260;2023-07-02T02:42:24;10.33;;;7.00;;
12784;SDS011;6456;42.680;23.260;2023-07-02T02:44:51;9.10;;;7.37;;
12784;SDS011;6456;42.680;23.260;2023-07-02T02:47:20;11.73;;;8.43;;
12784;SDS011;6456;42.680;23.260;2023-07-02T02:49:47;11.43;;;7.40;;
12784;SDS011;6456;42.680;23.260;2023-07-02T02:52:13;11.20;;;7.60;;
12784;SDS011;6456;42.680;23.260;2023-07-02T02:54:40;9.83;;;7.13;;
12784;SDS011;6456;42.680;23.260;2023-07-02T02:57:07;15.80;;;10.40;;
12784;SDS011;6456;42.680;23.260;2023-07-02T02:59:34;11.17;;;6.83;;
12784;SDS011;6456;42.680;23.260;2023-07-02T03:02:01;10.60;;;6.60;;
12784;SDS011;6456;42.680;23.260;2023-07-02T03:04:30;9.67;;;6.73;;
12784;SDS011;6456;42.680;23.260;2023-07-02T03:06:57;10.40;;;6.80;;
12784;SDS011;6456;42.680;23.260;2023-07-02T03:09:24;7.43;;;6.20;;
12784;SDS011;6456;42.680;23.260;2023-07-02T03:11:51;9.07;;;6.50;;
12784;SDS011;6456;42.680;23.260;2023-07-02T03:14:17;8.27;;;5.83;;
12784;SDS011;6456;42.680;23.260;2023-07-02T03:16:44;6.50;;;5.63;;
12784;SDS011;6456;42.680;23.260;2023-07-02T03:19:11;8.60;;;6.50;;
12784;SDS011;6456;42.680;23.260;2023-07-02T03:21:41;7.87;;;6.30;;
12784;SDS011;6456;42.680;23.260;2023-07-02T03:24:08;10.57;;;6.00;;
12784;SDS011;6456;42.680;23.260;2023-07-02T03:26:37;7.97;;;6.03;;
12784;SDS011;6456;42.680;23.260;2023-07-02T03:29:04;10.07;;;6.33;;
12784;SDS011;6456;42.680;23.260;2023-07-02T03:31:31;12.63;;;7.10;;
12784;SDS011;6456;42.680;23.260;2023-07-02T03:33:57;7.73;;;6.37;;
12784;SDS011;6456;42.680;23.260;2023-07-02T03:36:24;8.47;;;6.30;;
12784;SDS011;6456;42.680;23.260;2023-07-02T03:38:53;9.57;;;6.30;;
12784;SDS011;6456;42.680;23.260;2023-07-02T03:41:19;9.03;;;6.13;;
12784;SDS011;6456;42.680;23.260;2023-07-02T03:43:46;9.70;;;6.60;;
12784;SDS011;6456;42.680;23.260;2023-07-02T03:46:13;10.97;;;6.57;;
12784;SDS011;6456;42.680;23.260;2023-07-02T03:48:40;8.70;;;6.47;;
12784;SDS011;6456;42.680;23.260;2023-07-02T03:51:07;10.20;;;6.20;;
12784;SDS011;6456;42.680;23.260;2023-07-02T03:53:34;7.27;;;6.17;;
12784;SDS011;6456;42.680;23.260;2023-07-02T03:56:02;9.40;;;6.40;;
12784;SDS011;6456;42.680;23.260;2023-07-02T03:58:29;11.27;;;7.30;;
12784;SDS011;6456;42.680;23.260;2023-07-02T04:01:01;9.87;;;6.70;;
12784;SDS011;6456;42.680;23.260;2023-07-02T04:03:28;10.90;;;6.77;;
12784;SDS011;6456;42.680;23.260;2023-07-02T04:05:56;13.30;;;6.57;;
12784;SDS011;6456;42.680;23.260;2023-07-02T04:08:23;12.30;;;6.63;;
12784;SDS011;6456;42.680;23.260;2023-07-02T04:10:50;12.63;;;6.50;;
12784;SDS011;6456;42.680;23.260;2023-07-02T04:13:19;9.43;;;6.87;;
12784;SDS011;6456;42.680;23.260;2023-07-02T04:15:46;8.10;;;5.73;;
12784;SDS011;6456;42.680;23.260;2023-07-02T04:18:13;6.80;;;5.73;;
12784;SDS011;6456;42.680;23.260;2023-07-02T04:20:40;12.23;;;6.23;;
12784;SDS011;6456;42.680;23.260;2023-07-02T04:23:07;8.27;;;6.40;;
12784;SDS011;6456;42.680;23.260;2023-07-02T04:25:34;9.10;;;6.23;;
12784;SDS011;6456;42.680;23.260;2023-07-02T04:28:01;7.03;;;5.63;;
12784;SDS011;6456;42.680;23.260;2023-07-02T04:30:29;10.30;;;6.17;;
12784;SDS011;6456;42.680;23.260;2023-07-02T04:32:56;8.33;;;6.37;;
12784;SDS011;6456;42.680;23.260;2023-07-02T04:35:23;9.00;;;6.97;;
12784;SDS011;6456;42.680;23.260;2023-07-02T04:37:50;8.80;;;6.63;;
12784;SDS011;6456;42.680;23.260;2023-07-02T04:40:17;11.87;;;6.60;;
12784;SDS011;6456;42.680;23.260;2023-07-02T04:42:44;13.30;;;7.77;;
12784;SDS011;6456;42.680;23.260;2023-07-02T04:45:12;12.60;;;8.23;;
12784;SDS011;6456;42.680;23.260;2023-07-02T04:47:42;11.67;;;7.43;;
12784;SDS011;6456;42.680;23.260;2023-07-02T04:50:10;9.97;;;7.47;;
12784;SDS011;6456;42.680;23.260;2023-07-02T04:52:37;9.50;;;6.77;;
12784;SDS011;6456;42.680;23.260;2023-07-02T04:55:04;11.97;;;7.00;;
12784;SDS011;6456;42.680;23.260;2023-07-02T04:57:31;15.97;;;11.33;;
12784;SDS011;6456;42.680;23.260;2023-07-02T04:59:58;12.23;;;10.80;;
12784;SDS011;6456;42.680;23.260;2023-07-02T05:02:25;20.50;;;14.73;;
12784;SDS011;6456;42.680;23.260;2023-07-02T05:04:53;25.00;;;18.53;;
12784;SDS011;6456;42.680;23.260;2023-07-02T05:07:20;23.90;;;17.40;;
12784;SDS011;6456;42.680;23.260;2023-07-02T05:09:47;21.90;;;17.20;;
12784;SDS011;6456;42.680;23.260;2023-07-02T05:12:16;18.13;;;14.53;;
12784;SDS011;6456;42.680;23.260;2023-07-02T05:14:43;13.47;;;9.37;;
12784;SDS011;6456;42.680;23.260;2023-07-02T05:17:10;11.97;;;8.00;;
12784;SDS011;6456;42.680;23.260;2023-07-02T05:19:38;10.37;;;8.23;;
12784;SDS011;6456;42.680;23.260;2023-07-02T05:22:07;12.67;;;7.93;;
12784;SDS011;6456;42.680;23.260;2023-07-02T05:24:34;9.37;;;7.03;;
12784;SDS011;6456;42.680;23.260;2023-07-02T05:27:01;12.87;;;7.07;;
12784;SDS011;6456;42.680;23.260;2023-07-02T05:29:28;8.90;;;6.97;;
12784;SDS011;6456;42.680;23.260;2023-07-02T05:31:55;10.63;;;7.27;;
12784;SDS011;6456;42.680;23.260;2023-07-02T05:34:22;8.37;;;6.90;;
12784;SDS011;6456;42.680;23.260;2023-07-02T05:36:48;11.17;;;7.03;;
12784;SDS011;6456;42.680;23.260;2023-07-02T05:39:17;10.27;;;7.10;;
12784;SDS011;6456;42.680;23.260;2023-07-02T05:41:43;11.50;;;6.93;;
12784;SDS011;6456;42.680;23.260;2023-07-02T05:44:10;9.77;;;7.73;;
12784;SDS011;6456;42.680;23.260;2023-07-02T05:46:37;9.60;;;7.07;;
12784;SDS011;6456;42.680;23.260;2023-07-02T05:49:04;8.70;;;6.53;;
12784;SDS011;6456;42.680;23.260;2023-07-02T05:51:31;11.10;;;7.33;;
12784;SDS011;6456;42.680;23.260;2023-07-02T05:53:58;9.73;;;7.30;;
12784;SDS011;6456;42.680;23.260;2023-07-02T05:56:26;10.83;;;7.50;;
12784;SDS011;6456;42.680;23.260;2023-07-02T05:58:53;10.23;;;7.50;;
12784;SDS011;6456;42.680;23.260;2023-07-02T06:01:20;9.70;;;7.10;;
12784;SDS011;6456;42.680;23.260;2023-07-02T06:03:49;9.60;;;7.07;;
12784;SDS011;6456;42.680;23.260;2023-07-02T06:06:16;10.50;;;7.23;;
12784;SDS011;6456;42.680;23.260;2023-07-02T06:08:42;10.15;;;6.82;;
12784;SDS011;6456;42.680;23.260;2023-07-02T06:11:09;10.07;;;7.20;;
12784;SDS011;6456;42.680;23.260;2023-07-02T06:13:38;15.32;;;7.97;;
12784;SDS011;6456;42.680;23.260;2023-07-02T06:16:05;10.75;;;7.35;;
12784;SDS011;6456;42.680;23.260;2023-07-02T06:18:32;10.35;;;6.93;;
12784;SDS011;6456;42.680;23.260;2023-07-02T06:20:59;9.65;;;7.45;;
12784;SDS011;6456;42.680;23.260;2023-07-02T06:23:25;12.82;;;7.63;;
12784;SDS011;6456;42.680;23.260;2023-07-02T06:25:53;8.57;;;6.68;;
12784;SDS011;6456;42.680;23.260;2023-07-02T06:28:24;9.13;;;7.43;;
12784;SDS011;6456;42.680;23.260;2023-07-02T06:30:52;11.95;;;7.30;;
12784;SDS011;6456;42.680;23.260;2023-07-02T06:33:19;9.73;;;6.75;;
12784;SDS011;6456;42.680;23.260;2023-07-02T06:35:46;11.38;;;7.43;;
12784;SDS011;6456;42.680;23.260;2023-07-02T06:38:12;9.73;;;7.28;;
12784;SDS011;6456;42.680;23.260;2023-07-02T06:40:39;11.48;;;7.13;;
12784;SDS011;6456;42.680;23.260;2023-07-02T06:43:06;10.73;;;7.03;;
12784;SDS011;6456;42.680;23.260;2023-07-02T06:45:33;10.45;;;6.95;;
12784;SDS011;6456;42.680;23.260;2023-07-02T06:48:01;10.93;;;7.03;;
12784;SDS011;6456;42.680;23.260;2023-07-02T06:50:28;12.00;;;6.90;;
12784;SDS011;6456;42.680;23.260;2023-07-02T06:52:55;9.70;;;6.95;;
12784;SDS011;6456;42.680;23.260;2023-07-02T06:55:22;10.23;;;7.22;;
12784;SDS011;6456;42.680;23.260;2023-07-02T06:57:49;7.50;;;6.55;;
12784;SDS011;6456;42.680;23.260;2023-07-02T07:00:16;8.98;;;6.00;;
12784;SDS011;6456;42.680;23.260;2023-07-02T07:02:43;8.85;;;6.43;;
12784;SDS011;6456;42.680;23.260;2023-07-02T07:05:11;12.32;;;7.45;;
12784;SDS011;6456;42.680;23.260;2023-07-02T07:07:38;8.13;;;7.03;;
12784;SDS011;6456;42.680;23.260;2023-07-02T07:10:05;10.18;;;6.55;;
12784;SDS011;6456;42.680;23.260;2023-07-02T07:12:33;10.85;;;7.53;;
12784;SDS011;6456;42.680;23.260;2023-07-02T07:15:00;11.45;;;7.97;;
12784;SDS011;6456;42.680;23.260;2023-07-02T07:17:27;11.57;;;8.57;;
12784;SDS011;6456;42.680;23.260;2023-07-02T07:19:54;14.57;;;9.25;;
12784;SDS011;6456;42.680;23.260;2023-07-02T07:22:22;11.82;;;8.23;;
12784;SDS011;6456;42.680;23.260;2023-07-02T07:24:49;12.32;;;7.65;;
12784;SDS011;6456;42.680;23.260;2023-07-02T07:27:16;9.68;;;7.78;;
12784;SDS011;6456;42.680;23.260;2023-07-02T07:29:43;11.02;;;8.10;;
12784;SDS011;6456;42.680;23.260;2023-07-02T07:32:10;10.65;;;7.30;;
12784;SDS011;6456;42.680;23.260;2023-07-02T07:34:36;10.10;;;7.25;;
12784;SDS011;6456;42.680;23.260;2023-07-02T07:37:04;10.38;;;7.22;;
12784;SDS011;6456;42.680;23.260;2023-07-02T07:39:32;9.20;;;7.25;;
12784;SDS011;6456;42.680;23.260;2023-07-02T07:41:59;8.68;;;6.57;;
12784;SDS011;6456;42.680;23.260;2023-07-02T07:44:26;11.98;;;7.15;;
12784;SDS011;6456;42.680;23.260;2023-07-02T07:46:54;9.23;;;6.35;;
12784;SDS011;6456;42.680;23.260;2023-07-02T07:49:21;9.85;;;6.90;;
12784;SDS011;6456;42.680;23.260;2023-07-02T07:51:48;12.43;;;7.18;;
12784;SDS011;6456;42.680;23.260;2023-07-02T07:54:15;9.80;;;7.35;;
12784;SDS011;6456;42.680;23.260;2023-07-02T07:56:43;15.48;;;7.20;;
12784;SDS011;6456;42.680;23.260;2023-07-02T07:59:10;8.98;;;6.22;;
12784;SDS011;6456;42.680;23.260;2023-07-02T08:01:39;7.93;;;5.72;;
12784;SDS011;6456;42.680;23.260;2023-07-02T08:04:06;7.88;;;6.55;;
12784;SDS011;6456;42.680;23.260;2023-07-02T08:06:33;7.20;;;6.32;;
12784;SDS011;6456;42.680;23.260;2023-07-02T08:09:00;8.57;;;6.40;;
12784;SDS011;6456;42.680;23.260;2023-07-02T08:11:28;8.25;;;6.28;;
12784;SDS011;6456;42.680;23.260;2023-07-02T08:13:56;8.30;;;6.25;;
12784;SDS011;6456;42.680;23.260;2023-07-02T08:16:23;13.40;;;7.32;;
12784;SDS011;6456;42.680;23.260;2023-07-02T08:18:50;8.68;;;6.25;;
12784;SDS011;6456;42.680;23.260;2023-07-02T08:21:17;8.48;;;6.25;;
12784;SDS011;6456;42.680;23.260;2023-07-02T08:23:44;7.95;;;6.18;;
12784;SDS011;6456;42.680;23.260;2023-07-02T08:26:11;7.60;;;6.50;;
12784;SDS011;6456;42.680;23.260;2023-07-02T08:28:39;7.57;;;5.28;;
12784;SDS011;6456;42.680;23.260;2023-07-02T08:31:07;8.07;;;5.97;;
12784;SDS011;6456;42.680;23.260;2023-07-02T08:33:34;6.57;;;5.78;;
12784;SDS011;6456;42.680;23.260;2023-07-02T08:36:00;6.90;;;5.50;;
12784;SDS011;6456;42.680;23.260;2023-07-02T08:38:35;7.40;;;4.97;;
12784;SDS011;6456;42.680;23.260;2023-07-02T08:41:04;5.70;;;4.95;;
12784;SDS011;6456;42.680;23.260;2023-07-02T08:43:31;8.52;;;5.38;;
12784;SDS011;6456;42.680;23.260;2023-07-02T08:45:58;11.52;;;5.90;;
12784;SDS011;6456;42.680;23.260;2023-07-02T08:48:26;8.00;;;5.50;;
12784;SDS011;6456;42.680;23.260;2023-07-02T08:50:54;7.00;;;5.57;;
12784;SDS011;6456;42.680;23.260;2023-07-02T08:53:21;6.38;;;5.57;;
12784;SDS011;6456;42.680;23.260;2023-07-02T08:55:54;6.13;;;5.53;;
12784;SDS011;6456;42.680;23.260;2023-07-02T08:58:21;8.25;;;7.05;;
12784;SDS011;6456;42.680;23.260;2023-07-02T09:01:03;7.03;;;5.20;;
12784;SDS011;6456;42.680;23.260;2023-07-02T09:03:32;7.95;;;6.13;;
12784;SDS011;6456;42.680;23.260;2023-07-02T09:05:59;7.13;;;5.50;;
12784;SDS011;6456;42.680;23.260;2023-07-02T09:08:26;8.10;;;5.32;;
12784;SDS011;6456;42.680;23.260;2023-07-02T09:10:54;6.25;;;5.50;;
12784;SDS011;6456;42.680;23.260;2023-07-02T09:13:31;7.13;;;5.25;;
12784;SDS011;6456;42.680;23.260;2023-07-02T09:15:58;6.30;;;5.18;;
12784;SDS011;6456;42.680;23.260;2023-07-02T09:18:25;11.55;;;5.30;;
12784;SDS011;6456;42.680;23.260;2023-07-02T09:20:54;6.45;;;5.35;;
12784;SDS011;6456;42.680;23.260;2023-07-02T09:23:21;6.85;;;5.68;;
12784;SDS011;6456;42.680;23.260;2023-07-02T09:25:48;5.50;;;4.90;;
12784;SDS011;6456;42.680;23.260;2023-07-02T09:28:17;7.53;;;5.75;;
12784;SDS011;6456;42.680;23.260;2023-07-02T09:30:51;8.05;;;5.55;;
12784;SDS011;6456;42.680;23.260;2023-07-02T09:33:19;6.95;;;5.68;;
12784;SDS011;6456;42.680;23.260;2023-07-02T09:35:46;7.95;;;5.75;;
12784;SDS011;6456;42.680;23.260;2023-07-02T09:38:14;5.03;;;4.45;;
12784;SDS011;6456;42.680;23.260;2023-07-02T09:40:44;4.55;;;4.15;;
12784;SDS011;6456;42.680;23.260;2023-07-02T09:43:13;7.65;;;4.75;;
12784;SDS011;6456;42.680;23.260;2023-07-02T09:45:42;7.32;;;4.63;;
12784;SDS011;6456;42.680;23.260;2023-07-02T09:48:11;5.63;;;4.90;;
12784;SDS011;6456;42.680;23.260;2023-07-02T09:50:40;6.15;;;5.18;;
12784;SDS011;6456;42.680;23.260;2023-07-02T09:53:08;7.38;;;5.53;;
12784;SDS011;6456;42.680;23.260;2023-07-02T09:55:37;9.27;;;5.53;;
12784;SDS011;6456;42.680;23.260;2023-07-02T09:58:05;6.85;;;5.47;;
12784;SDS011;6456;42.680;23.260;2023-07-02T10:00:32;5.55;;;4.97;;
12784;SDS011;6456;42.680;23.260;2023-07-02T10:02:58;6.13;;;5.00;;
12784;SDS011;6456;42.680;23.260;2023-07-02T10:05:26;7.03;;;5.65;;
12784;SDS011;6456;42.680;23.260;2023-07-02T10:07:55;9.23;;;5.10;;
12784;SDS011;6456;42.680;23.260;2023-07-02T10:10:25;5.57;;;4.65;;
12784;SDS011;6456;42.680;23.260;2023-07-02T10:12:55;6.22;;;4.80;;
12784;SDS011;6456;42.680;23.260;2023-07-02T10:15:25;6.65;;;4.93;;
12784;SDS011;6456;42.680;23.260;2023-07-02T10:17:56;5.53;;;4.68;;
12784;SDS011;6456;42.680;23.260;2023-07-02T10:20:33;5.95;;;5.15;;
12784;SDS011;6456;42.680;23.260;2023-07-02T10:23:02;4.95;;;4.45;;
12784;SDS011;6456;42.680;23.260;2023-07-02T10:25:30;5.07;;;4.57;;
12784;SDS011;6456;42.680;23.260;2023-07-02T10:28:00;4.68;;;4.22;;
12784;SDS011;6456;42.680;23.260;2023-07-02T10:30:31;4.78;;;3.88;;
12784;SDS011;6456;42.680;23.260;2023-07-02T10:33:08;4.47;;;4.07;;
12784;SDS011;6456;42.680;23.260;2023-07-02T10:35:36;3.60;;;3.30;;
12784;SDS011;6456;42.680;23.260;2023-07-02T10:38:04;3.60;;;3.30;;
12784;SDS011;6456;42.680;23.260;2023-07-02T10:40:32;4.13;;;3.55;;
12784;SDS011;6456;42.680;23.260;2023-07-02T10:43:01;4.75;;;3.50;;
12784;SDS011;6456;42.680;23.260;2023-07-02T10:45:31;4.20;;;3.35;;
12784;SDS011;6456;42.680;23.260;2023-07-02T10:48:00;3.70;;;3.40;;
12784;SDS011;6456;42.680;23.260;2023-07-02T10:50:29;3.70;;;3.40;;
12784;SDS011;6456;42.680;23.260;2023-07-02T10:52:57;3.60;;;3.30;;
12784;SDS011;6456;42.680;23.260;2023-07-02T10:55:24;3.75;;;3.45;;
12784;SDS011;6456;42.680;23.260;2023-07-02T10:58:03;3.67;;;3.38;;
12784;SDS011;6456;42.680;23.260;2023-07-02T11:00:31;3.75;;;3.35;;
12784;SDS011;6456;42.680;23.260;2023-07-02T11:02:59;3.50;;;3.20;;
12784;SDS011;6456;42.680;23.260;2023-07-02T11:05:26;4.47;;;3.80;;
12784;SDS011;6456;42.680;23.260;2023-07-02T11:07:53;4.90;;;3.30;;
12784;SDS011;6456;42.680;23.260;2023-07-02T11:10:22;3.90;;;3.60;;
12784;SDS011;6456;42.680;23.260;2023-07-02T11:12:50;4.43;;;4.03;;
12784;SDS011;6456;42.680;23.260;2023-07-02T11:15:19;4.45;;;4.05;;
12784;SDS011;6456;42.680;23.260;2023-07-02T11:17:46;4.20;;;3.80;;
12784;SDS011;6456;42.680;23.260;2023-07-02T11:20:13;4.70;;;3.55;;
12784;SDS011;6456;42.680;23.260;2023-07-02T11:22:41;5.25;;;4.10;;
12784;SDS011;6456;42.680;23.260;2023-07-02T11:25:09;4.05;;;3.72;;
12784;SDS011;6456;42.680;23.260;2023-07-02T11:27:39;7.53;;;3.88;;
12784;SDS011;6456;42.680;23.260;2023-07-02T11:30:07;4.22;;;3.80;;
12784;SDS011;6456;42.680;23.260;2023-07-02T11:35:19;4.30;;;3.90;;
12784;SDS011;6456;42.680;23.260;2023-07-02T11:37:46;4.13;;;3.70;;
12784;SDS011;6456;42.680;23.260;2023-07-02T11:40:14;4.20;;;3.80;;
12784;SDS011;6456;42.680;23.260;2023-07-02T11:42:45;5.05;;;3.58;;
12784;SDS011;6456;42.680;23.260;2023-07-02T11:45:12;4.57;;;3.35;;
12784;SDS011;6456;42.680;23.260;2023-07-02T11:47:39;3.88;;;3.13;;
12784;SDS011;6456;42.680;23.260;2023-07-02T11:50:07;3.17;;;2.78;;
12784;SDS011;6456;42.680;23.260;2023-07-02T11:52:35;2.60;;;2.40;;
12784;SDS011;6456;42.680;23.260;2023-07-02T11:55:01;2.50;;;2.30;;
12784;SDS011;6456;42.680;23.260;2023-07-02T11:57:29;2.60;;;2.40;;
12784;SDS011;6456;42.680;23.260;2023-07-02T11:59:56;3.17;;;2.78;;
12784;SDS011;6456;42.680;23.260;2023-07-02T12:02:23;2.78;;;2.58;;
12784;SDS011;6456;42.680;23.260;2023-07-02T12:04:50;5.68;;;3.30;;
12784;SDS011;6456;42.680;23.260;2023-07-02T12:07:18;4.93;;;3.30;;
12784;SDS011;6456;42.680;23.260;2023-07-02T12:09:45;5.13;;;3.38;;
12784;SDS011;6456;42.680;23.260;2023-07-02T12:12:12;3.60;;;3.30;;
12784;SDS011;6456;42.680;23.260;2023-07-02T12:14:40;3.67;;;3.38;;
12784;SDS011;6456;42.680;23.260;2023-07-02T12:17:08;3.45;;;3.13;;
12784;SDS011;6456;42.680;23.260;2023-07-02T12:19:37;4.40;;;3.65;;
12784;SDS011;6456;42.680;23.260;2023-07-02T12:22:04;5.05;;;3.75;;
12784;SDS011;6456;42.680;23.260;2023-07-02T12:24:32;6.05;;;3.90;;
12784;SDS011;6456;42.680;23.260;2023-07-02T12:26:59;5.55;;;4.07;;
12784;SDS011;6456;42.680;23.260;2023-07-02T12:29:26;5.80;;;3.92;;
12784;SDS011;6456;42.680;23.260;2023-07-02T12:31:53;5.38;;;4.63;;
12784;SDS011;6456;42.680;23.260;2023-07-02T12:34:20;5.00;;;4.22;;
12784;SDS011;6456;42.680;23.260;2023-07-02T12:36:47;5.00;;;4.25;;
12784;SDS011;6456;42.680;23.260;2023-07-02T12:39:14;5.15;;;4.40;;
12784;SDS011;6456;42.680;23.260;2023-07-02T12:41:42;4.10;;;3.70;;
12784;SDS011;6456;42.680;23.260;2023-07-02T12:44:09;5.07;;;4.30;;
12784;SDS011;6456;42.680;23.260;2023-07-02T12:46:36;8.30;;;4.57;;
12784;SDS011;6456;42.680;23.260;2023-07-02T12:49:03;6.47;;;4.90;;
12784;SDS011;6456;42.680;23.260;2023-07-02T12:51:29;5.97;;;4.20;;
12784;SDS011;6456;42.680;23.260;2023-07-02T12:53:56;6.60;;;4.10;;
12784;SDS011;6456;42.680;23.260;2023-07-02T12:56:23;4.20;;;3.80;;
12784;SDS011;6456;42.680;23.260;2023-07-02T12:58:51;4.38;;;3.97;;
12784;SDS011;6456;42.680;23.260;2023-07-02T13:01:18;4.43;;;4.05;;
12784;SDS011;6456;42.680;23.260;2023-07-02T13:03:45;4.60;;;4.20;;
12784;SDS011;6456;42.680;23.260;2023-07-02T13:06:13;4.18;;;3.75;;
12784;SDS011;6456;42.680;23.260;2023-07-02T13:08:40;5.32;;;4.30;;
12784;SDS011;6456;42.680;23.260;2023-07-02T13:11:07;5.95;;;4.32;;
12784;SDS011;6456;42.680;23.260;2023-07-02T13:13:34;5.30;;;4.32;;
12784;SDS011;6456;42.680;23.260;2023-07-02T13:16:03;7.05;;;4.50;;
12784;SDS011;6456;42.680;23.260;2023-07-02T13:18:30;6.43;;;4.68;;
12784;SDS011;6456;42.680;23.260;2023-07-02T13:20:57;4.93;;;4.38;;
12784;SDS011;6456;42.680;23.260;2023-07-02T13:23:24;5.65;;;4.38;;
12784;SDS011;6456;42.680;23.260;2023-07-02T13:25:51;4.90;;;4.40;;
12784;SDS011;6456;42.680;23.260;2023-07-02T13:28:18;5.25;;;4.75;;
12784;SDS011;6456;42.680;23.260;2023-07-02T13:30:46;5.30;;;4.50;;
12784;SDS011;6456;42.680;23.260;2023-07-02T13:33:14;4.40;;;4.00;;
12784;SDS011;6456;42.680;23.260;2023-07-02T13:35:41;5.40;;;4.78;;
12784;SDS011;6456;42.680;23.260;2023-07-02T13:38:09;5.05;;;4.43;;
12784;SDS011;6456;42.680;23.260;2023-07-02T13:40:35;5.20;;;4.70;;
12784;SDS011;6456;42.680;23.260;2023-07-02T13:43:02;5.47;;;4.65;;
12784;SDS011;6456;42.680;23.260;2023-07-02T13:45:29;5.25;;;4.75;;
12784;SDS011;6456;42.680;23.260;2023-07-02T13:47:56;5.30;;;4.25;;
12784;SDS011;6456;42.680;23.260;2023-07-02T13:50:24;5.93;;;4.43;;
12784;SDS011;6456;42.680;23.260;2023-07-02T13:52:51;5.95;;;4.80;;
12784;SDS011;6456;42.680;23.260;2023-07-02T13:55:18;4.97;;;4.45;;
12784;SDS011;6456;42.680;23.260;2023-07-02T13:57:46;6.43;;;4.55;;
12784;SDS011;6456;42.680;23.260;2023-07-02T14:00:14;6.40;;;5.03;;
12784;SDS011;6456;42.680;23.260;2023-07-02T14:02:42;5.70;;;4.65;;
12784;SDS011;6456;42.680;23.260;2023-07-02T14:05:08;10.73;;;5.07;;
12784;SDS011;6456;42.680;23.260;2023-07-02T14:07:35;6.93;;;5.50;;
12784;SDS011;6456;42.680;23.260;2023-07-02T14:10:02;7.75;;;5.60;;
12784;SDS011;6456;42.680;23.260;2023-07-02T14:12:30;7.15;;;6.45;;
12784;SDS011;6456;42.680;23.260;2023-07-02T14:14:57;7.43;;;6.03;;
12784;SDS011;6456;42.680;23.260;2023-07-02T14:17:25;8.25;;;6.10;;
12784;SDS011;6456;42.680;23.260;2023-07-02T14:19:51;6.47;;;5.78;;
12784;SDS011;6456;42.680;23.260;2023-07-02T14:22:18;8.23;;;5.95;;
12784;SDS011;6456;42.680;23.260;2023-07-02T14:24:45;7.65;;;6.03;;
12784;SDS011;6456;42.680;23.260;2023-07-02T14:27:12;7.07;;;5.70;;
12784;SDS011;6456;42.680;23.260;2023-07-02T14:29:39;7.93;;;6.20;;
12784;SDS011;6456;42.680;23.260;2023-07-02T14:32:06;7.63;;;5.75;;
12784;SDS011;6456;42.680;23.260;2023-07-02T14:34:35;9.07;;;6.60;;
12784;SDS011;6456;42.680;23.260;2023-07-02T14:37:02;6.60;;;5.93;;
12784;SDS011;6456;42.680;23.260;2023-07-02T14:39:29;7.53;;;5.75;;
12784;SDS011;6456;42.680;23.260;2023-07-02T14:41:56;9.82;;;6.70;;
12784;SDS011;6456;42.680;23.260;2023-07-02T14:44:41;7.13;;;5.75;;
12784;SDS011;6456;42.680;23.260;2023-07-02T14:47:08;6.65;;;5.93;;
12784;SDS011;6456;42.680;23.260;2023-07-02T14:49:36;7.55;;;6.45;;
12784;SDS011;6456;42.680;23.260;2023-07-02T14:52:03;7.30;;;6.13;;